createdAt,value
2023-03-22T00:00:15.164Z,100.00
2023-03-22T00:02:43.843Z,100.00
2023-03-22T00:05:12.309Z,100.00
2023-03-22T00:07:41.440Z,100.00
2023-03-22T00:10:12.332Z,100.00
2023-03-22T00:12:40.777Z,100.00
2023-03-22T00:15:11.144Z,100.00
2023-03-22T00:17:39.600Z,100.00
2023-03-22T00:20:09.296Z,100.00
2023-03-22T00:22:37.918Z,100.00
2023-03-22T00:25:07.414Z,100.00
2023-03-22T00:27:37.198Z,100.00
2023-03-22T00:30:06.799Z,100.00
2023-03-22T00:32:35.994Z,100.00
2023-03-22T00:35:05.167Z,100.00
2023-03-22T00:37:34.380Z,100.00
2023-03-22T00:40:03.458Z,100.00
2023-03-22T00:42:32.235Z,100.00
2023-03-22T00:45:02.020Z,100.00
2023-03-22T00:47:30.492Z,100.00
2023-03-22T00:49:58.949Z,100.00
2023-03-22T00:52:28.856Z,100.00
2023-03-22T00:54:57.542Z,100.00
2023-03-22T00:57:26.129Z,100.00
2023-03-22T00:59:55.872Z,100.00
2023-03-22T01:02:29.639Z,100.00
2023-03-22T01:04:58.051Z,100.00
2023-03-22T01:07:26.521Z,100.00
2023-03-22T01:09:55.433Z,100.00
2023-03-22T01:12:23.865Z,100.00
2023-03-22T01:14:52.319Z,100.00
2023-03-22T01:17:20.790Z,100.00
2023-03-22T01:19:50.653Z,100.00
2023-03-22T01:22:19.055Z,100.00
2023-03-22T01:24:47.459Z,100.00
2023-03-22T01:27:15.912Z,100.00
2023-03-22T01:29:44.377Z,100.00
2023-03-22T01:32:13.977Z,100.00
2023-03-22T01:34:42.380Z,100.00
2023-03-22T01:37:12.166Z,100.00
2023-03-22T01:39:40.784Z,100.00
2023-03-22T01:42:14.487Z,100.00
2023-03-22T01:44:46.942Z,100.00
2023-03-22T01:47:15.372Z,100.00
2023-03-22T01:49:44.286Z,100.00
2023-03-22T01:52:17.122Z,100.00
2023-03-22T01:54:48.802Z,100.00
2023-03-22T01:57:18.489Z,100.00
2023-03-22T01:59:50.119Z,100.00
2023-03-22T02:02:22.156Z,100.00
2023-03-22T02:04:51.266Z,100.00
2023-03-22T02:07:27.152Z,100.00
2023-03-22T02:09:55.867Z,100.00
2023-03-22T02:12:37.366Z,100.00
2023-03-22T02:15:18.680Z,100.00
2023-03-22T02:17:59.809Z,100.00
2023-03-22T02:21:27.918Z,100.00
2023-03-22T02:24:18.850Z,100.00
2023-03-22T02:27:28.663Z,100.00
2023-03-22T02:30:07.646Z,100.00
2023-03-22T02:33:05.249Z,100.00
2023-03-22T02:35:51.471Z,100.00
2023-03-22T02:38:52.854Z,100.00
2023-03-22T02:41:34.718Z,100.00
2023-03-22T02:44:12.902Z,100.00
2023-03-22T02:46:46.563Z,100.00
2023-03-22T02:49:22.958Z,100.00
2023-03-22T02:51:59.671Z,100.00
2023-03-22T02:54:35.621Z,100.00
2023-03-22T02:57:11.148Z,100.00
2023-03-22T02:59:42.882Z,100.00
2023-03-22T03:02:14.746Z,100.00
2023-03-22T03:04:47.434Z,100.00
2023-03-22T03:07:20.293Z,100.00
2023-03-22T03:09:50.070Z,100.00
2023-03-22T03:12:22.382Z,100.00
2023-03-22T03:14:50.848Z,100.00
2023-03-22T03:17:31.841Z,100.00
2023-03-22T03:20:12.784Z,100.00
2023-03-22T03:22:54.756Z,100.00
2023-03-22T03:25:28.172Z,100.00
2023-03-22T03:28:06.198Z,100.00
2023-03-22T03:30:44.597Z,100.00
2023-03-22T03:33:17.616Z,100.00
2023-03-22T03:35:50.771Z,100.00
2023-03-22T03:38:22.443Z,100.00
2023-03-22T03:40:55.414Z,100.00
2023-03-22T03:43:26.939Z,100.00
2023-03-22T03:45:56.415Z,100.00
2023-03-22T03:48:29.767Z,100.00
2023-03-22T03:50:59.143Z,100.00
2023-03-22T03:53:27.917Z,100.00
2023-03-22T03:55:56.359Z,100.00
2023-03-22T03:58:26.214Z,100.00
2023-03-22T04:00:54.665Z,100.00
2023-03-22T04:03:23.371Z,100.00
2023-03-22T04:05:51.782Z,100.00
2023-03-22T04:08:20.186Z,100.00
2023-03-22T04:10:51.759Z,100.00
2023-03-22T04:13:21.486Z,100.00
2023-03-22T04:15:55.408Z,100.00
2023-03-22T04:18:24.535Z,100.00
2023-03-22T04:20:53.645Z,100.00
2023-03-22T04:23:23.227Z,100.00
2023-03-22T04:25:51.834Z,100.00
2023-03-22T04:28:20.377Z,100.00
2023-03-22T04:30:51.030Z,100.00
2023-03-22T04:33:22.983Z,100.00
2023-03-22T04:35:56.692Z,100.00
2023-03-22T04:38:26.174Z,100.00
2023-03-22T04:40:55.359Z,100.00
2023-03-22T04:43:23.756Z,100.00
2023-03-22T04:45:54.693Z,100.00
2023-03-22T04:48:28.082Z,100.00
2023-03-22T04:50:56.635Z,100.00
2023-03-22T04:53:27.292Z,100.00
2023-03-22T04:55:57.109Z,100.00
2023-03-22T04:58:26.268Z,100.00
2023-03-22T05:00:54.986Z,100.00
2023-03-22T05:03:25.160Z,100.00
2023-03-22T05:05:55.248Z,100.00
2023-03-22T05:08:25.977Z,100.00
2023-03-22T05:10:54.641Z,100.00
2023-03-22T05:13:26.556Z,100.00
2023-03-22T05:15:55.345Z,100.00
2023-03-22T05:18:26.340Z,100.00
2023-03-22T05:20:57.065Z,100.00
2023-03-22T05:23:25.916Z,100.00
2023-03-22T05:25:55.116Z,100.00
2023-03-22T05:28:23.506Z,100.00
2023-03-22T05:30:53.117Z,100.00
2023-03-22T05:33:22.779Z,100.00
2023-03-22T05:35:52.681Z,100.00
2023-03-22T05:38:22.801Z,100.00
2023-03-22T05:40:51.343Z,100.00
2023-03-22T05:43:20.046Z,100.00
2023-03-22T05:45:49.132Z,100.00
2023-03-22T05:48:17.672Z,100.00
2023-03-22T05:50:46.231Z,100.00
2023-03-22T05:53:16.077Z,100.00
2023-03-22T05:55:44.955Z,100.00
2023-03-22T05:58:19.015Z,100.00
2023-03-22T06:00:49.559Z,100.00
2023-03-22T06:03:18.386Z,100.00
2023-03-22T06:05:50.740Z,100.00
2023-03-22T06:08:21.005Z,100.00
2023-03-22T06:10:50.995Z,100.00
2023-03-22T06:13:19.819Z,100.00
2023-03-22T06:15:48.318Z,100.00
2023-03-22T06:18:16.768Z,100.00
2023-03-22T06:20:45.155Z,100.00
2023-03-22T06:23:13.714Z,100.00
2023-03-22T06:25:43.618Z,100.00
2023-03-22T06:28:12.178Z,100.00
2023-03-22T06:30:40.960Z,100.00
2023-03-22T06:33:09.578Z,100.00
2023-03-22T06:35:38.012Z,100.00
2023-03-22T06:38:06.537Z,100.00
2023-03-22T06:40:35.791Z,100.00
2023-03-22T06:43:07.216Z,100.00
2023-03-22T06:45:36.043Z,100.00
2023-03-22T06:48:04.541Z,100.00
2023-03-22T06:50:34.052Z,100.00
2023-03-22T06:53:02.513Z,100.00
2023-03-22T06:55:33.272Z,100.00
2023-03-22T06:58:02.388Z,100.00
2023-03-22T07:00:34.260Z,100.00
2023-03-22T07:03:03.370Z,100.00
2023-03-22T07:05:32.152Z,100.00
2023-03-22T07:08:00.768Z,100.00
2023-03-22T07:10:29.285Z,100.00
2023-03-22T07:12:58.009Z,100.00
2023-03-22T07:15:26.539Z,100.00
2023-03-22T07:17:56.353Z,100.00
2023-03-22T07:20:24.754Z,100.00
2023-03-22T07:22:53.238Z,100.00
2023-03-22T07:25:21.878Z,100.00
2023-03-22T07:27:50.285Z,100.00
2023-03-22T07:30:18.829Z,100.00
2023-03-22T07:32:47.338Z,100.00
2023-03-22T07:35:18.925Z,100.00
2023-03-22T07:37:48.824Z,100.00
2023-03-22T07:40:17.408Z,100.00
2023-03-22T07:42:45.967Z,100.00
2023-03-22T07:45:14.382Z,100.00
2023-03-22T07:47:43.005Z,100.00
2023-03-22T07:50:13.271Z,100.00
2023-03-22T07:52:43.758Z,100.00
2023-03-22T07:55:13.818Z,100.00
2023-03-22T07:57:42.272Z,100.00
2023-03-22T08:00:12.081Z,100.00
2023-03-22T08:02:40.843Z,100.00
2023-03-22T08:05:09.795Z,100.00
2023-03-22T08:07:38.579Z,100.00
2023-03-22T08:10:08.981Z,100.00
2023-03-22T08:12:37.459Z,100.00
2023-03-22T08:15:06.596Z,100.00
2023-03-22T08:17:35.029Z,100.00
2023-03-22T08:20:08.299Z,100.00
2023-03-22T08:22:37.087Z,100.00
2023-03-22T08:25:06.055Z,100.00
2023-03-22T08:27:36.233Z,100.00
2023-03-22T08:30:05.861Z,100.00
2023-03-22T08:32:34.752Z,100.00
2023-03-22T08:35:03.219Z,100.00
2023-03-22T08:37:31.649Z,100.00
2023-03-22T08:40:00.357Z,100.00
2023-03-22T08:42:28.790Z,100.00
2023-03-22T08:44:58.552Z,100.00
2023-03-22T08:47:27.039Z,100.00
2023-03-22T08:49:55.721Z,100.00
2023-03-22T08:52:24.117Z,100.00
2023-03-22T08:54:53.445Z,100.00
2023-03-22T08:57:23.900Z,100.00
2023-03-22T08:59:53.187Z,100.00
2023-03-22T09:02:23.038Z,100.00
2023-03-22T09:04:51.707Z,100.00
2023-03-22T09:07:20.379Z,100.00
2023-03-22T09:09:48.818Z,100.00
2023-03-22T09:12:17.938Z,100.00
2023-03-22T09:14:48.119Z,100.00
2023-03-22T09:17:20.154Z,100.00
2023-03-22T09:19:57.611Z,100.00
2023-03-22T09:22:32.033Z,100.00
2023-03-22T09:25:00.513Z,100.00
2023-03-22T09:27:29.063Z,100.00
2023-03-22T09:29:57.881Z,100.00
2023-03-22T09:32:26.404Z,100.00
2023-03-22T09:34:56.663Z,100.00
2023-03-22T09:37:30.199Z,100.00
2023-03-22T09:39:59.027Z,100.00
2023-03-22T09:42:37.700Z,100.00
2023-03-22T09:45:12.804Z,99.94
2023-03-22T09:47:46.639Z,97.91
2023-03-22T09:50:21.492Z,97.24
2023-03-22T09:52:50.693Z,95.83
2023-03-22T09:55:22.006Z,94.13
2023-03-22T09:57:59.977Z,93.38
2023-03-22T10:00:36.655Z,93.54
2023-03-22T10:03:15.655Z,92.92
2023-03-22T10:05:51.015Z,92.58
2023-03-22T10:08:31.186Z,90.99
2023-03-22T10:11:01.315Z,89.57
2023-03-22T10:13:36.126Z,88.30
2023-03-22T10:16:07.512Z,88.14
2023-03-22T10:18:38.895Z,87.82
2023-03-22T10:21:11.029Z,88.76
2023-03-22T10:23:44.133Z,87.77
2023-03-22T10:26:20.968Z,86.82
2023-03-22T10:28:56.583Z,86.76
2023-03-22T10:31:28.054Z,85.93
2023-03-22T10:34:06.164Z,86.17
2023-03-22T10:36:39.715Z,85.52
2023-03-22T10:39:16.873Z,85.55
2023-03-22T10:41:46.975Z,83.43
2023-03-22T10:44:19.805Z,84.07
2023-03-22T10:46:50.814Z,81.68
2023-03-22T10:49:26.316Z,82.33
2023-03-22T10:52:01.367Z,80.86
2023-03-22T10:54:30.129Z,80.54
2023-03-22T10:56:58.653Z,80.82
2023-03-22T10:59:48.381Z,79.89
2023-03-22T11:02:27.831Z,80.22
2023-03-22T11:04:58.979Z,79.88
2023-03-22T11:07:32.357Z,78.69
2023-03-22T11:10:12.959Z,76.90
2023-03-22T11:12:47.367Z,77.13
2023-03-22T11:15:26.437Z,78.15
2023-03-22T11:17:59.543Z,79.30
2023-03-22T11:20:29.926Z,78.46
2023-03-22T11:23:05.252Z,76.13
2023-03-22T11:25:36.854Z,75.53
2023-03-22T11:28:16.649Z,73.86
2023-03-22T11:31:00.663Z,75.29
2023-03-22T11:33:29.195Z,75.96
2023-03-22T11:35:59.242Z,75.99
2023-03-22T11:38:31.585Z,73.90
2023-03-22T11:41:03.166Z,72.97
2023-03-22T11:43:37.297Z,72.13
2023-03-22T11:46:08.806Z,72.84
2023-03-22T11:48:38.353Z,71.94
2023-03-22T11:51:12.592Z,70.56
2023-03-22T11:53:44.201Z,68.58
2023-03-22T11:56:17.257Z,67.70
2023-03-22T11:58:59.764Z,67.59
2023-03-22T12:01:42.167Z,67.87
2023-03-22T12:04:16.534Z,67.07
2023-03-22T12:06:44.960Z,65.88
2023-03-22T12:09:26.464Z,65.36
2023-03-22T12:11:57.462Z,63.67
2023-03-22T12:14:29.954Z,61.97
2023-03-22T12:17:02.648Z,62.22
2023-03-22T12:19:48.099Z,63.29
2023-03-22T12:22:19.504Z,62.49
2023-03-22T12:24:49.308Z,62.67
2023-03-22T12:27:21.890Z,61.80
2023-03-22T12:29:55.869Z,62.00
2023-03-22T12:32:27.986Z,61.28
2023-03-22T12:35:05.474Z,60.50
2023-03-22T12:37:49.013Z,60.66
2023-03-22T12:40:24.540Z,62.67
2023-03-22T12:43:03.795Z,61.99
2023-03-22T12:45:37.170Z,61.47
2023-03-22T12:48:13.330Z,60.30
2023-03-22T12:50:46.568Z,58.69
2023-03-22T12:53:17.702Z,60.02
2023-03-22T12:55:49.643Z,59.59
2023-03-22T12:58:22.142Z,59.47
2023-03-22T13:00:56.070Z,58.29
2023-03-22T13:03:29.119Z,59.23
2023-03-22T13:06:04.676Z,57.11
2023-03-22T13:09:05.121Z,57.81
2023-03-22T13:11:35.000Z,56.41
2023-03-22T13:14:03.709Z,57.81
2023-03-22T13:16:51.125Z,57.25
2023-03-22T13:19:30.122Z,56.83
2023-03-22T13:22:21.010Z,54.47
2023-03-22T13:25:07.319Z,55.36
2023-03-22T13:27:41.816Z,56.51
2023-03-22T13:30:18.254Z,56.05
2023-03-22T13:32:56.008Z,55.96
2023-03-22T13:35:28.323Z,56.29
2023-03-22T13:38:03.831Z,56.42
2023-03-22T13:40:37.904Z,55.12
2023-03-22T13:43:25.439Z,53.90
2023-03-22T13:46:44.099Z,53.98
2023-03-22T13:49:43.592Z,55.05
2023-03-22T13:52:25.365Z,56.01
2023-03-22T13:54:57.298Z,56.07
2023-03-22T13:57:50.848Z,57.22
2023-03-22T14:03:34.917Z,58.63
2023-03-22T14:06:10.860Z,58.55
2023-03-22T14:08:41.621Z,59.61
2023-03-22T14:11:35.411Z,59.18
2023-03-22T14:14:07.835Z,59.87
2023-03-22T14:16:41.552Z,60.03
2023-03-22T14:19:19.900Z,58.66
